Time;durP1;ratioP1;P1;durP2;ratioP2;P2;SDS_P1;SDS_P2;PMS_P1;PMS_P2;Temp;Humidity;BMP_temperature;BMP_pressure;BME280_temperature;BME280_humidity;BME280_pressure;Samples;Min_cycle;Max_cycle;Signal;HPM_P1;HPM_P2
2021/12/08 00:00:31;;;;;;;14.35;6.50;;;;;;;;;;6129877;23;20017;-81
2021/12/08 00:03:01;;;;;;;10.98;5.65;;;;;;;;;;6154718;23;20024;-81
2021/12/08 00:05:27;;;;;;;13.18;6.13;;;;;;;;;;6154646;23;20466;-81
2021/12/08 00:07:53;;;;;;;14.98;5.95;;;;;;;;;;6130027;23;20021;-80
2021/12/08 00:13:07;;;;;;;14.82;6.70;;;;;;;;;;6154398;23;20013;-81
2021/12/08 00:15:35;;;;;;;15.52;6.88;;;;;;;;;;6154979;23;20009;-81
2021/12/08 00:18:01;;;;;;;12.73;5.75;;;;;;;;;;6130282;23;20020;-81
2021/12/08 00:20:31;;;;;;;12.13;6.30;;;;;;;;;;6129639;23;20075;-81
2021/12/08 00:22:57;;;;;;;13.07;6.45;;;;;;;;;;6129840;23;20096;-80
2021/12/08 00:25:23;;;;;;;17.38;6.70;;;;;;;;;;6129857;23;20048;-80
2021/12/08 00:27:49;;;;;;;17.65;6.65;;;;;;;;;;6154217;23;20013;-80
2021/12/08 00:30:16;;;;;;;16.38;6.93;;;;;;;;;;6154383;23;20095;-80
2021/12/08 00:32:42;;;;;;;14.48;6.93;;;;;;;;;;6154262;23;20059;-80
2021/12/08 00:35:09;;;;;;;14.45;7.45;;;;;;;;;;6153856;23;20013;-80
2021/12/08 00:37:35;;;;;;;17.55;7.88;;;;;;;;;;6129556;23;20013;-80
2021/12/08 00:40:01;;;;;;;12.70;7.05;;;;;;;;;;6154027;23;20096;-80
2021/12/08 00:42:27;;;;;;;15.32;6.45;;;;;;;;;;6154306;23;20017;-83
2021/12/08 00:44:53;;;;;;;15.75;6.80;;;;;;;;;;6129700;23;20192;-80
2021/12/08 00:47:19;;;;;;;15.25;7.28;;;;;;;;;;6154127;23;20520;-80
2021/12/08 00:49:46;;;;;;;16.38;7.70;;;;;;;;;;6153660;23;20019;-79
2021/12/08 00:52:16;;;;;;;16.58;7.72;;;;;;;;;;6129815;23;20017;-79
2021/12/08 00:54:42;;;;;;;15.77;8.18;;;;;;;;;;6129365;23;20339;-80
2021/12/08 00:57:08;;;;;;;15.15;7.15;;;;;;;;;;6153814;23;20244;-81
2021/12/08 00:59:34;;;;;;;16.30;7.70;;;;;;;;;;6154077;23;20071;-80
2021/12/08 01:02:02;;;;;;;13.65;6.85;;;;;;;;;;6154473;23;20017;-81
2021/12/08 01:04:33;;;;;;;15.98;8.18;;;;;;;;;;6129074;23;20032;-79
2021/12/08 01:06:59;;;;;;;17.65;7.30;;;;;;;;;;6129090;23;20026;-80
2021/12/08 01:09:25;;;;;;;14.95;7.45;;;;;;;;;;6153809;23;20013;-80
2021/12/08 01:11:51;;;;;;;16.02;7.28;;;;;;;;;;6128996;23;20009;-80
2021/12/08 01:14:18;;;;;;;16.05;6.63;;;;;;;;;;6153889;23;20342;-80
2021/12/08 01:16:44;;;;;;;15.10;6.70;;;;;;;;;;6128997;23;20017;-81
2021/12/08 01:19:10;;;;;;;16.35;7.72;;;;;;;;;;6153708;23;20088;-80
2021/12/08 01:21:36;;;;;;;14.25;7.55;;;;;;;;;;6129162;23;20048;-80
2021/12/08 01:24:02;;;;;;;14.35;7.10;;;;;;;;;;6129291;23;20096;-82
2021/12/08 01:26:29;;;;;;;15.68;7.00;;;;;;;;;;6153965;23;20669;-80
2021/12/08 01:28:57;;;;;;;14.25;7.25;;;;;;;;;;6153392;23;20088;-79
2021/12/08 01:31:23;;;;;;;13.25;6.90;;;;;;;;;;6128743;23;20009;-81
2021/12/08 01:33:49;;;;;;;13.10;6.90;;;;;;;;;;6153555;23;20021;-81
2021/12/08 01:36:16;;;;;;;13.10;7.03;;;;;;;;;;6153540;23;20466;-79
2021/12/08 01:38:42;;;;;;;14.02;7.40;;;;;;;;;;6153650;23;20505;-80
2021/12/08 01:41:08;;;;;;;14.90;8.02;;;;;;;;;;6129155;23;20357;-81
2021/12/08 01:46:37;;;;;;;14.60;7.20;;;;;;;;;;6064056;23;20102;-81
2021/12/08 01:49:04;;;;;;;14.45;7.70;;;;;;;;;;6110402;23;20017;-81
2021/12/08 01:51:31;;;;;;;16.63;7.55;;;;;;;;;;6128760;23;20020;-79
2021/12/08 01:54:01;;;;;;;13.93;7.60;;;;;;;;;;6153566;23;20432;-79
2021/12/08 01:56:27;;;;;;;18.85;8.27;;;;;;;;;;6128680;23;20451;-80
2021/12/08 01:58:53;;;;;;;13.20;7.85;;;;;;;;;;6153322;23;20020;-79
2021/12/08 02:01:21;;;;;;;14.82;8.05;;;;;;;;;;6130709;23;20328;-79
2021/12/08 02:03:49;;;;;;;14.52;8.88;;;;;;;;;;6155194;23;20009;-80
2021/12/08 02:06:17;;;;;;;13.73;7.95;;;;;;;;;;6130398;23;20538;-80
2021/12/08 02:08:46;;;;;;;12.88;7.53;;;;;;;;;;6130727;23;20032;-79
2021/12/08 02:11:12;;;;;;;13.00;8.13;;;;;;;;;;6130686;23;20013;-78
2021/12/08 02:13:44;;;;;;;16.70;8.07;;;;;;;;;;6130371;23;20067;-79
2021/12/08 02:16:13;;;;;;;13.68;7.40;;;;;;;;;;6130418;23;20009;-82
2021/12/08 02:18:40;;;;;;;14.73;8.35;;;;;;;;;;6130397;23;20010;-79
2021/12/08 02:21:28;;;;;;;14.82;8.02;;;;;;;;;;6130490;23;20454;-79
2021/12/08 02:23:55;;;;;;;15.18;7.60;;;;;;;;;;6155133;23;20048;-79
2021/12/08 02:26:22;;;;;;;13.05;7.90;;;;;;;;;;6130584;23;20467;-79
2021/12/08 02:28:48;;;;;;;13.60;7.75;;;;;;;;;;6154875;23;20013;-79
2021/12/08 02:31:20;;;;;;;13.50;7.70;;;;;;;;;;6130290;23;20040;-79
2021/12/08 02:47:53;;;;;;;13.00;7.28;;;;;;;;;;6134182;23;20017;-78
2021/12/08 02:50:27;;;;;;;16.63;7.43;;;;;;;;;;6130277;23;20009;-78
2021/12/08 02:52:54;;;;;;;10.82;6.40;;;;;;;;;;6130065;23;20096;-78
2021/12/08 02:55:20;;;;;;;12.20;7.50;;;;;;;;;;6155015;23;20459;-79
2021/12/08 02:57:46;;;;;;;12.48;6.93;;;;;;;;;;6154739;23;20328;-78
2021/12/08 03:00:14;;;;;;;15.43;8.13;;;;;;;;;;6129408;23;20544;-79
2021/12/08 03:02:40;;;;;;;13.73;8.60;;;;;;;;;;6154556;23;20017;-78
2021/12/08 03:05:07;;;;;;;14.57;8.10;;;;;;;;;;6154304;23;20025;-78
2021/12/08 03:07:33;;;;;;;13.77;8.32;;;;;;;;;;6154169;23;20061;-78
2021/12/08 03:10:07;;;;;;;15.20;8.20;;;;;;;;;;6154481;23;20020;-79
2021/12/08 03:12:33;;;;;;;;;;;;;;;;;;6154794;23;20104;-79
2021/12/08 03:14:59;;;;;;;15.65;8.98;;;;;;;;;;6180967;23;19963;-78
2021/12/08 03:17:25;;;;;;;13.20;8.38;;;;;;;;;;6129853;23;20342;-78
2021/12/08 03:19:51;;;;;;;17.50;10.13;;;;;;;;;;6154813;23;20144;-78
2021/12/08 03:22:17;;;;;;;17.08;10.57;;;;;;;;;;6154477;23;20466;-78
2021/12/08 03:24:46;;;;;;;18.42;11.23;;;;;;;;;;6154466;23;20099;-78
2021/12/08 03:27:16;;;;;;;21.20;10.35;;;;;;;;;;6154296;23;20470;-77
2021/12/08 03:30:11;;;;;;;15.95;10.23;;;;;;;;;;6129898;23;20016;-78
2021/12/08 03:32:41;;;;;;;16.15;11.10;;;;;;;;;;6155041;23;20013;-78
2021/12/08 03:35:13;;;;;;;17.52;10.32;;;;;;;;;;6153914;23;20009;-78
2021/12/08 03:37:59;;;;;;;16.70;10.25;;;;;;;;;;6084664;23;20401;-79
2021/12/08 03:41:06;;;;;;;17.95;10.98;;;;;;;;;;6025259;23;20023;-78
2021/12/08 03:44:00;;;;;;;18.70;10.85;;;;;;;;;;6036175;23;20263;-79
2021/12/08 03:46:42;;;;;;;17.13;10.85;;;;;;;;;;6036086;23;20078;-79
2021/12/08 03:49:20;;;;;;;19.05;11.75;;;;;;;;;;6037557;23;20015;-78
2021/12/08 03:52:13;;;;;;;17.85;11.30;;;;;;;;;;6036155;23;20043;-79
2021/12/08 03:54:39;;;;;;;18.65;12.20;;;;;;;;;;6012284;23;20469;-79
2021/12/08 03:57:06;;;;;;;20.30;10.93;;;;;;;;;;6012440;23;20630;-79
2021/12/08 03:59:33;;;;;;;21.65;13.35;;;;;;;;;;6012358;23;20471;-79
2021/12/08 04:01:59;;;;;;;19.35;12.88;;;;;;;;;;6035965;23;20054;-79
2021/12/08 04:04:28;;;;;;;20.67;12.80;;;;;;;;;;6035862;23;20019;-78
2021/12/08 04:06:56;;;;;;;20.52;13.13;;;;;;;;;;6059901;23;20023;-78
2021/12/08 04:09:31;;;;;;;20.58;13.80;;;;;;;;;;6101705;23;20069;-78
2021/12/08 04:11:57;;;;;;;23.58;13.88;;;;;;;;;;6136785;23;20017;-78
2021/12/08 04:14:25;;;;;;;22.45;13.80;;;;;;;;;;6154194;23;20052;-78
2021/12/08 04:16:54;;;;;;;27.13;14.80;;;;;;;;;;6153906;23;20016;-79
2021/12/08 04:19:22;;;;;;;21.55;14.73;;;;;;;;;;6129383;23;20017;-78
2021/12/08 04:21:49;;;;;;;25.60;15.70;;;;;;;;;;6129109;23;20013;-78
2021/12/08 04:24:16;;;;;;;23.48;15.00;;;;;;;;;;6153294;23;20095;-79
2021/12/08 04:26:45;;;;;;;25.60;14.45;;;;;;;;;;6129095;23;20025;-80
2021/12/08 04:29:12;;;;;;;24.63;15.45;;;;;;;;;;6153835;23;20502;-79
2021/12/08 04:31:40;;;;;;;27.48;17.02;;;;;;;;;;6129249;23;20013;-79
2021/12/08 04:34:12;;;;;;;22.67;16.15;;;;;;;;;;6129208;23;20020;-79
2021/12/08 04:36:43;;;;;;;26.95;16.02;;;;;;;;;;6128937;23;20475;-79
2021/12/08 04:39:13;;;;;;;26.80;18.05;;;;;;;;;;6180464;23;20020;-79
2021/12/08 04:41:45;;;;;;;24.50;16.48;;;;;;;;;;6129183;23;20440;-79
2021/12/08 04:50:05;;;;;;;26.30;18.65;;;;;;;;;;6153487;23;20095;-80
2021/12/08 04:52:28;;;;;;;26.63;16.88;;;;;;;;;;6179741;23;20455;-80
2021/12/08 05:01:08;;;;;;;28.75;19.08;;;;;;;;;;6180151;23;20017;-79
2021/12/08 05:09:04;;;;;;;28.48;18.90;;;;;;;;;;6153397;23;20021;-79
2021/12/08 05:11:32;;;;;;;30.67;19.58;;;;;;;;;;6128806;23;20009;-79
2021/12/08 05:14:01;;;;;;;32.83;20.52;;;;;;;;;;6153511;23;20085;-79
2021/12/08 05:16:28;;;;;;;29.38;19.65;;;;;;;;;;6180000;23;20342;-79
2021/12/08 05:18:55;;;;;;;31.40;18.85;;;;;;;;;;6153260;23;20013;-79
2021/12/08 05:21:25;;;;;;;27.30;18.10;;;;;;;;;;6153272;23;20019;-79
2021/12/08 05:24:11;;;;;;;28.02;20.02;;;;;;;;;;6153717;23;20019;-79
2021/12/08 05:26:39;;;;;;;27.65;19.27;;;;;;;;;;6153015;23;20064;-79
2021/12/08 05:29:12;;;;;;;29.10;19.45;;;;;;;;;;6153607;23;20017;-79
2021/12/08 05:31:38;;;;;;;29.33;20.15;;;;;;;;;;6128881;23;20009;-80
2021/12/08 05:34:04;;;;;;;31.75;20.17;;;;;;;;;;6153077;23;20049;-79
2021/12/08 05:36:31;;;;;;;28.48;18.60;;;;;;;;;;6128643;23;20017;-79
2021/12/08 05:38:58;;;;;;;29.08;20.67;;;;;;;;;;6128711;23;20455;-79
2021/12/08 05:41:27;;;;;;;29.60;18.42;;;;;;;;;;6179558;23;20013;-79
2021/12/08 05:43:53;;;;;;;27.35;18.67;;;;;;;;;;6128558;23;20013;-79
2021/12/08 05:46:20;;;;;;;29.67;19.60;;;;;;;;;;6179804;23;20020;-79
2021/12/08 05:48:48;;;;;;;30.98;19.98;;;;;;;;;;6153151;23;20092;-79
2021/12/08 05:51:16;;;;;;;28.35;18.85;;;;;;;;;;6127729;23;20526;-79
2021/12/08 05:53:44;;;;;;;29.40;18.58;;;;;;;;;;6153475;23;20020;-79
2021/12/08 05:56:11;;;;;;;27.77;17.70;;;;;;;;;;6128427;23;20075;-79
2021/12/08 05:58:37;;;;;;;27.55;17.92;;;;;;;;;;6153070;23;20013;-79
2021/12/08 06:01:16;;;;;;;25.42;18.45;;;;;;;;;;6179845;23;20044;-79
2021/12/08 06:03:43;;;;;;;32.15;18.13;;;;;;;;;;6152904;23;20520;-79
2021/12/08 06:06:10;;;;;;;26.55;17.27;;;;;;;;;;6152910;23;20320;-79
2021/12/08 06:08:36;;;;;;;28.40;17.13;;;;;;;;;;6151923;23;20017;-79
2021/12/08 06:11:03;;;;;;;25.20;16.70;;;;;;;;;;6127272;23;20325;-79
2021/12/08 06:13:30;;;;;;;23.70;16.27;;;;;;;;;;6178122;23;20293;-79
2021/12/08 06:15:56;;;;;;;24.70;15.07;;;;;;;;;;6127194;23;20112;-79
2021/12/08 06:18:24;;;;;;;20.90;13.40;;;;;;;;;;6178725;23;20162;-78
2021/12/08 06:20:53;;;;;;;23.42;15.18;;;;;;;;;;6151859;23;20024;-79
2021/12/08 06:23:19;;;;;;;24.63;14.88;;;;;;;;;;6128613;23;20636;-79
2021/12/08 06:25:46;;;;;;;29.10;14.98;;;;;;;;;;6129112;23;20455;-79
2021/12/08 06:28:11;;;;;;;24.80;14.57;;;;;;;;;;6152179;23;20023;-79
2021/12/08 06:30:39;;;;;;;24.27;14.30;;;;;;;;;;6128118;23;20369;-79
2021/12/08 06:33:05;;;;;;;22.63;13.90;;;;;;;;;;6128199;23;20015;-79
2021/12/08 06:35:33;;;;;;;23.45;13.35;;;;;;;;;;6152465;23;20558;-79
2021/12/08 06:37:59;;;;;;;21.73;12.88;;;;;;;;;;6126737;23;20017;-79
2021/12/08 06:40:34;;;;;;;28.05;17.35;;;;;;;;;;6127922;23;20051;-79
2021/12/08 06:43:03;;;;;;;23.80;13.30;;;;;;;;;;6152037;23;20024;-79
2021/12/08 06:45:31;;;;;;;29.00;17.98;;;;;;;;;;6127445;23;20017;-79
2021/12/08 06:47:59;;;;;;;21.77;13.07;;;;;;;;;;6155632;23;20013;-78
2021/12/08 06:50:27;;;;;;;19.58;12.52;;;;;;;;;;6182780;23;20318;-78
2021/12/08 06:52:54;;;;;;;21.70;13.43;;;;;;;;;;6180750;23;20016;-78
2021/12/08 06:55:30;;;;;;;18.73;12.38;;;;;;;;;;6154375;23;20350;-79
2021/12/08 06:57:59;;;;;;;20.13;10.85;;;;;;;;;;6180743;23;20339;-79
2021/12/08 07:00:45;;;;;;;19.42;11.13;;;;;;;;;;6180001;23;20024;-79
2021/12/08 07:08:23;;;;;;;17.35;11.10;;;;;;;;;;6177688;23;19966;-79
2021/12/08 07:10:52;;;;;;;23.08;13.13;;;;;;;;;;6151568;23;20068;-79
2021/12/08 07:13:20;;;;;;;20.90;10.80;;;;;;;;;;6152243;23;20059;-79
2021/12/08 07:16:00;;;;;;;17.70;10.40;;;;;;;;;;6179936;23;20346;-78
2021/12/08 07:18:38;;;;;;;17.23;10.68;;;;;;;;;;6153760;23;20013;-79
2021/12/08 07:21:04;;;;;;;19.23;10.13;;;;;;;;;;6180558;23;20394;-78
2021/12/08 07:23:37;;;;;;;18.45;9.60;;;;;;;;;;6180563;23;20088;-78
2021/12/08 07:26:08;;;;;;;16.40;8.98;;;;;;;;;;6180304;23;20346;-79
2021/12/08 07:28:34;;;;;;;15.25;9.10;;;;;;;;;;6154380;23;20013;-78
2021/12/08 07:31:03;;;;;;;15.10;8.43;;;;;;;;;;6154334;23;20017;-78
2021/12/08 07:33:30;;;;;;;18.02;8.07;;;;;;;;;;6129671;23;20017;-78
2021/12/08 07:35:58;;;;;;;11.93;8.15;;;;;;;;;;6154153;23;20020;-78
2021/12/08 07:38:26;;;;;;;14.88;8.50;;;;;;;;;;6154216;23;20048;-78
2021/12/08 07:40:55;;;;;;;14.80;7.10;;;;;;;;;;6180675;23;20024;-79
2021/12/08 07:43:22;;;;;;;14.38;6.50;;;;;;;;;;6154295;23;20015;-78
2021/12/08 07:45:53;;;;;;;13.88;7.18;;;;;;;;;;6180513;23;20028;-79
2021/12/08 07:48:24;;;;;;;14.45;7.05;;;;;;;;;;6180538;23;20025;-79
2021/12/08 07:51:01;;;;;;;12.55;6.82;;;;;;;;;;6129617;23;20067;-79
2021/12/08 07:53:28;;;;;;;12.02;5.68;;;;;;;;;;6154240;23;20009;-78
2021/12/08 07:56:00;;;;;;;11.48;5.95;;;;;;;;;;6129409;23;20415;-79
2021/12/08 07:58:26;;;;;;;14.30;7.20;;;;;;;;;;6153948;23;20028;-79
2021/12/08 08:00:55;;;;;;;12.88;6.10;;;;;;;;;;6129452;23;20103;-79
2021/12/08 08:03:22;;;;;;;12.45;6.05;;;;;;;;;;6154096;23;20048;-79
2021/12/08 08:05:50;;;;;;;13.02;6.65;;;;;;;;;;6129093;23;20021;-79
2021/12/08 08:08:18;;;;;;;15.35;6.53;;;;;;;;;;6180519;23;20017;-79
2021/12/08 08:10:46;;;;;;;12.18;5.95;;;;;;;;;;6180145;23;20363;-79
2021/12/08 08:13:13;;;;;;;12.25;6.45;;;;;;;;;;6153638;23;20009;-79
2021/12/08 08:15:43;;;;;;;13.23;6.07;;;;;;;;;;6128871;23;20471;-79
2021/12/08 08:18:11;;;;;;;14.95;6.15;;;;;;;;;;6153574;23;20024;-79
2021/12/08 08:20:44;;;;;;;13.02;5.75;;;;;;;;;;6153606;23;20017;-80
2021/12/08 08:23:10;;;;;;;12.05;5.35;;;;;;;;;;6128549;23;20063;-81
2021/12/08 08:25:38;;;;;;;11.63;5.03;;;;;;;;;;6153150;23;20049;-81
2021/12/08 08:28:05;;;;;;;11.98;5.18;;;;;;;;;;6152422;23;20021;-79
2021/12/08 08:30:33;;;;;;;10.00;5.15;;;;;;;;;;6153200;23;20017;-79
2021/12/08 08:33:00;;;;;;;13.05;5.38;;;;;;;;;;6153373;23;20044;-80
2021/12/08 08:35:26;;;;;;;11.20;4.53;;;;;;;;;;6152662;23;20031;-80
2021/12/08 08:37:53;;;;;;;11.13;5.07;;;;;;;;;;6153137;23;20016;-80
2021/12/08 08:40:33;;;;;;;11.98;4.90;;;;;;;;;;6153610;23;20411;-80
2021/12/08 08:43:00;;;;;;;12.57;4.88;;;;;;;;;;6153087;23;20450;-80
2021/12/08 08:45:38;;;;;;;14.85;4.25;;;;;;;;;;6153211;23;20021;-80
2021/12/08 08:48:10;;;;;;;12.48;4.68;;;;;;;;;;6179143;23;20078;-79
2021/12/08 08:50:38;;;;;;;10.98;4.10;;;;;;;;;;6128136;23;20017;-80
2021/12/08 08:53:05;;;;;;;13.45;5.07;;;;;;;;;;6153050;23;20009;-80
2021/12/08 08:55:33;;;;;;;14.60;4.72;;;;;;;;;;6153600;23;20017;-81
2021/12/08 08:58:02;;;;;;;10.40;4.28;;;;;;;;;;6128843;23;20071;-79
2021/12/08 09:00:33;;;;;;;9.43;4.53;;;;;;;;;;6153102;23;20473;-79
2021/12/08 09:03:02;;;;;;;10.52;3.67;;;;;;;;;;6179633;23;20028;-79
2021/12/08 09:05:36;;;;;;;10.25;4.30;;;;;;;;;;6152974;23;20450;-78
2021/12/08 09:08:03;;;;;;;9.75;3.83;;;;;;;;;;6179901;23;20057;-78
2021/12/08 09:10:33;;;;;;;11.07;4.50;;;;;;;;;;6182403;23;20092;-80
2021/12/08 09:13:02;;;;;;;11.45;4.20;;;;;;;;;;6154973;23;20013;-80
2021/12/08 09:15:46;;;;;;;9.35;3.35;;;;;;;;;;6153330;23;20341;-79
2021/12/08 09:18:18;;;;;;;10.27;3.53;;;;;;;;;;6153822;23;20100;-80
2021/12/08 09:20:44;;;;;;;13.80;3.92;;;;;;;;;;6179754;23;20013;-79
2021/12/08 09:23:19;;;;;;;9.52;3.30;;;;;;;;;;6153337;23;20132;-79
2021/12/08 09:25:48;;;;;;;10.77;3.88;;;;;;;;;;6179586;23;20443;-79
2021/12/08 09:28:21;;;;;;;12.40;3.40;;;;;;;;;;6153150;23;20045;-79
2021/12/08 09:30:56;;;;;;;11.68;4.20;;;;;;;;;;6153101;23;20088;-80
2021/12/08 09:33:26;;;;;;;12.63;3.97;;;;;;;;;;6128392;23;20017;-80
2021/12/08 09:35:57;;;;;;;13.10;4.28;;;;;;;;;;6153015;23;20458;-80
2021/12/08 09:38:29;;;;;;;12.00;3.42;;;;;;;;;;6152888;23;20025;-80
2021/12/08 09:41:00;;;;;;;11.15;3.85;;;;;;;;;;6127785;23;20388;-80
2021/12/08 09:43:28;;;;;;;12.68;3.65;;;;;;;;;;6127892;23;20180;-79
2021/12/08 09:46:00;;;;;;;11.73;3.67;;;;;;;;;;6152285;23;20012;-80
2021/12/08 09:48:29;;;;;;;8.70;3.50;;;;;;;;;;6155626;23;20335;-79
2021/12/08 09:50:56;;;;;;;13.38;4.03;;;;;;;;;;6156032;23;20009;-80
2021/12/08 09:53:22;;;;;;;12.52;4.32;;;;;;;;;;6153294;23;20265;-80
2021/12/08 09:55:50;;;;;;;8.50;3.30;;;;;;;;;;6155908;23;20023;-80
2021/12/08 09:58:16;;;;;;;9.68;3.75;;;;;;;;;;6155997;23;20036;-79
2021/12/08 10:00:44;;;;;;;6.75;2.80;;;;;;;;;;6181619;23;20044;-80
2021/12/08 10:03:13;;;;;;;9.40;3.63;;;;;;;;;;6153457;23;20016;-79
2021/12/08 10:05:41;;;;;;;9.20;4.20;;;;;;;;;;6153017;23;20021;-79
2021/12/08 10:08:07;;;;;;;13.23;4.35;;;;;;;;;;6179687;23;20017;-80
2021/12/08 10:10:34;;;;;;;10.35;3.85;;;;;;;;;;6153145;23;20017;-79
2021/12/08 10:13:00;;;;;;;10.52;3.67;;;;;;;;;;6179669;23;20019;-80
2021/12/08 10:15:27;;;;;;;11.40;3.75;;;;;;;;;;6152897;23;20091;-81
2021/12/08 10:17:55;;;;;;;9.95;3.85;;;;;;;;;;6128506;23;20459;-80
2021/12/08 10:20:26;;;;;;;11.25;4.18;;;;;;;;;;6128544;23;20028;-79
2021/12/08 10:23:12;;;;;;;11.63;3.58;;;;;;;;;;6154820;23;20092;-79
2021/12/08 10:25:44;;;;;;;12.00;3.70;;;;;;;;;;6130544;23;20021;-79
2021/12/08 10:28:10;;;;;;;7.97;3.28;;;;;;;;;;6154896;23;20558;-80
2021/12/08 10:30:46;;;;;;;11.75;3.72;;;;;;;;;;6181283;23;20041;-80
2021/12/08 10:33:36;;;;;;;12.57;4.65;;;;;;;;;;6155063;23;20489;-80
2021/12/08 10:36:15;;;;;;;10.27;3.30;;;;;;;;;;6154926;23;20415;-79
2021/12/08 10:38:41;;;;;;;9.82;3.78;;;;;;;;;;6155248;23;20051;-79
2021/12/08 10:41:08;;;;;;;9.63;3.70;;;;;;;;;;6130232;23;20017;-79
2021/12/08 10:43:34;;;;;;;10.05;4.05;;;;;;;;;;6154701;23;20386;-80
2021/12/08 10:46:05;;;;;;;16.52;4.10;;;;;;;;;;6154685;23;20020;-80
2021/12/08 10:48:36;;;;;;;10.35;3.90;;;;;;;;;;6154752;23;20013;-80
2021/12/08 10:56:40;;;;;;;12.18;3.97;;;;;;;;;;6154554;23;20021;-80
2021/12/08 10:59:06;;;;;;;16.75;4.60;;;;;;;;;;6130106;23;20021;-80
2021/12/08 11:01:32;;;;;;;9.55;3.63;;;;;;;;;;6154567;23;20359;-80
2021/12/08 11:04:00;;;;;;;10.90;3.95;;;;;;;;;;6130418;23;20017;-80
2021/12/08 11:06:30;;;;;;;11.25;3.72;;;;;;;;;;6154271;23;20048;-81
2021/12/08 11:08:56;;;;;;;10.25;4.00;;;;;;;;;;6130072;23;20028;-81
2021/12/08 11:11:29;;;;;;;12.15;4.18;;;;;;;;;;6154603;23;20017;-81
2021/12/08 11:13:59;;;;;;;13.25;4.00;;;;;;;;;;6154495;23;20032;-82
2021/12/08 11:16:30;;;;;;;12.00;4.47;;;;;;;;;;6154514;23;20064;-81
2021/12/08 11:19:01;;;;;;;10.55;4.07;;;;;;;;;;6154562;23;20091;-81
2021/12/08 11:21:36;;;;;;;11.90;4.20;;;;;;;;;;6154504;23;20009;-81
2021/12/08 11:24:03;;;;;;;;;;;;;;;;;;6154974;23;20024;-81
2021/12/08 11:26:30;;;;;;;10.65;4.30;;;;;;;;;;6154121;23;19991;-81
2021/12/08 11:29:00;;;;;;;12.13;4.65;;;;;;;;;;6154546;23;20017;-80
2021/12/08 11:31:34;;;;;;;11.77;4.50;;;;;;;;;;6129742;23;20108;-80
2021/12/08 11:34:02;;;;;;;10.55;3.80;;;;;;;;;;6153750;23;20068;-80
2021/12/08 11:36:30;;;;;;;11.43;4.47;;;;;;;;;;6129477;23;20529;-80
2021/12/08 11:38:57;;;;;;;13.43;4.40;;;;;;;;;;6129855;23;20355;-80
2021/12/08 11:41:26;;;;;;;9.07;4.15;;;;;;;;;;6154067;23;20017;-80
2021/12/08 11:43:56;;;;;;;12.05;4.00;;;;;;;;;;6154073;23;20063;-80
2021/12/08 11:46:23;;;;;;;11.20;5.07;;;;;;;;;;6153922;23;20048;-80
2021/12/08 11:48:56;;;;;;;12.55;4.18;;;;;;;;;;6154166;23;20024;-81
2021/12/08 11:51:22;;;;;;;9.98;4.10;;;;;;;;;;6153935;23;20019;-79
2021/12/08 11:53:49;;;;;;;8.80;3.72;;;;;;;;;;6128666;23;20017;-80
2021/12/08 11:56:35;;;;;;;9.10;3.55;;;;;;;;;;6154359;23;20084;-79
2021/12/08 11:59:01;;;;;;;15.80;4.13;;;;;;;;;;6157056;23;20092;-79
2021/12/08 12:01:27;;;;;;;11.40;3.90;;;;;;;;;;6182824;23;20017;-79
2021/12/08 12:03:53;;;;;;;12.75;4.00;;;;;;;;;;6155869;23;20021;-79
2021/12/08 12:06:27;;;;;;;10.40;4.15;;;;;;;;;;6155936;23;20021;-81
2021/12/08 12:08:53;;;;;;;10.27;3.60;;;;;;;;;;6183178;23;20052;-79
2021/12/08 12:11:19;;;;;;;8.57;4.05;;;;;;;;;;6129217;23;20017;-79
2021/12/08 12:13:46;;;;;;;10.20;4.50;;;;;;;;;;6129480;23;20459;-80
2021/12/08 12:16:13;;;;;;;13.10;5.07;;;;;;;;;;6129151;23;20009;-79
2021/12/08 12:18:39;;;;;;;13.57;4.80;;;;;;;;;;6153523;23;20098;-79
2021/12/08 12:21:17;;;;;;;12.60;4.45;;;;;;;;;;6180249;23;20021;-79
2021/12/08 12:23:45;;;;;;;10.70;4.30;;;;;;;;;;6129139;23;20021;-80
2021/12/08 12:26:23;;;;;;;10.90;4.50;;;;;;;;;;6154046;23;20012;-79
2021/12/08 12:29:04;;;;;;;10.48;4.20;;;;;;;;;;6153423;23;20448;-80
2021/12/08 12:31:44;;;;;;;8.18;4.00;;;;;;;;;;6153741;23;20159;-81
2021/12/08 12:34:21;;;;;;;9.18;4.25;;;;;;;;;;6153425;23;20015;-80
2021/12/08 12:36:47;;;;;;;11.30;4.43;;;;;;;;;;6128148;23;20020;-80
2021/12/08 12:39:14;;;;;;;10.10;5.13;;;;;;;;;;6179415;23;20021;-80
2021/12/08 12:41:41;;;;;;;8.57;3.50;;;;;;;;;;6153459;23;20114;-80
2021/12/08 12:44:18;;;;;;;11.70;4.68;;;;;;;;;;6156180;23;20403;-81
2021/12/08 12:47:03;;;;;;;9.00;4.20;;;;;;;;;;6182795;23;20435;-80
2021/12/08 12:49:30;;;;;;;11.90;3.97;;;;;;;;;;6128889;23;20013;-80
2021/12/08 12:52:00;;;;;;;12.00;3.95;;;;;;;;;;6129112;23;20024;-80
2021/12/08 12:54:27;;;;;;;8.38;3.88;;;;;;;;;;6128704;23;20461;-81
2021/12/08 12:56:54;;;;;;;8.77;4.30;;;;;;;;;;6153290;23;20017;-80
2021/12/08 12:59:22;;;;;;;10.90;3.83;;;;;;;;;;6180093;23;20024;-80
2021/12/08 13:02:32;;;;;;;9.98;3.67;;;;;;;;;;6153526;23;20019;-80
2021/12/08 13:05:09;;;;;;;11.00;4.18;;;;;;;;;;6007006;23;20023;-80
2021/12/08 13:07:39;;;;;;;12.70;4.40;;;;;;;;;;6007154;23;20350;-80
2021/12/08 13:10:12;;;;;;;9.75;4.00;;;;;;;;;;6122013;23;20363;-81
2021/12/08 13:12:40;;;;;;;13.40;3.88;;;;;;;;;;6153337;23;20020;-81
2021/12/08 13:15:13;;;;;;;8.48;3.53;;;;;;;;;;6180286;23;20048;-81
2021/12/08 13:17:59;;;;;;;7.13;3.47;;;;;;;;;;6128799;23;20280;-81
2021/12/08 13:20:26;;;;;;;9.77;4.07;;;;;;;;;;6153351;23;20052;-81
2021/12/08 13:22:54;;;;;;;10.60;4.00;;;;;;;;;;6153325;23;20084;-82
2021/12/08 13:28:13;;;;;;;10.30;3.80;;;;;;;;;;6153195;23;20454;-80
2021/12/08 13:30:47;;;;;;;10.00;4.05;;;;;;;;;;6153426;23;20048;-82
2021/12/08 13:33:26;;;;;;;10.45;3.72;;;;;;;;;;6153286;23;20038;-80
2021/12/08 13:35:56;;;;;;;9.93;4.00;;;;;;;;;;6128599;23;20067;-81
2021/12/08 13:38:22;;;;;;;10.05;3.60;;;;;;;;;;6128657;23;20016;-81
2021/12/08 13:40:50;;;;;;;10.32;3.75;;;;;;;;;;6128813;23;20040;-80
2021/12/08 13:43:52;;;;;;;10.10;3.75;;;;;;;;;;6128579;23;20016;-80
2021/12/08 13:46:40;;;;;;;10.25;3.83;;;;;;;;;;6004684;23;20363;-80
2021/12/08 13:49:15;;;;;;;9.70;3.47;;;;;;;;;;6146034;23;20036;-80
2021/12/08 13:51:42;;;;;;;9.13;3.42;;;;;;;;;;6125551;23;20020;-81
2021/12/08 13:54:27;;;;;;;9.23;3.40;;;;;;;;;;6152743;23;20013;-81
2021/12/08 13:56:54;;;;;;;10.93;3.70;;;;;;;;;;6151557;23;20053;-81
2021/12/08 13:59:39;;;;;;;9.35;4.05;;;;;;;;;;6128642;23;20407;-80
2021/12/08 14:02:05;;;;;;;;;;;;;;;;;;6130210;23;20095;-81
2021/12/08 14:04:31;;;;;;;10.50;3.80;;;;;;;;;;6129732;23;19963;-80
2021/12/08 14:06:57;;;;;;;11.85;3.97;;;;;;;;;;6129709;23;20079;-81
2021/12/08 14:09:23;;;;;;;8.40;3.72;;;;;;;;;;6129791;23;20451;-80
2021/12/08 14:11:52;;;;;;;9.43;3.72;;;;;;;;;;6155309;23;20450;-82
2021/12/08 14:14:18;;;;;;;11.25;4.68;;;;;;;;;;6129827;23;20005;-80
2021/12/08 14:16:49;;;;;;;7.97;3.63;;;;;;;;;;6129462;23;20418;-80
2021/12/08 14:19:17;;;;;;;11.60;3.35;;;;;;;;;;6154290;23;20013;-80
2021/12/08 14:21:43;;;;;;;15.40;7.00;;;;;;;;;;6156203;23;20039;-80
2021/12/08 14:24:12;;;;;;;71.68;33.33;;;;;;;;;;6132870;23;20100;-81
2021/12/08 14:26:39;;;;;;;13.52;4.53;;;;;;;;;;6153793;23;20013;-81
2021/12/08 14:29:13;;;;;;;13.38;5.28;;;;;;;;;;6129461;23;20016;-81
2021/12/08 14:31:39;;;;;;;;;;;;;;;;;;6154662;23;20450;-80
2021/12/08 14:34:09;;;;;;;14.05;3.85;;;;;;;;;;6129737;23;19919;-80
2021/12/08 14:36:51;;;;;;;7.50;3.35;;;;;;;;;;6152518;23;20343;-80
2021/12/08 14:39:48;;;;;;;7.78;3.50;;;;;;;;;;6129619;23;20306;-80
2021/12/08 14:42:16;;;;;;;8.25;3.30;;;;;;;;;;6128000;23;20376;-80
2021/12/08 14:44:45;;;;;;;10.70;3.20;;;;;;;;;;6153740;23;20096;-80
2021/12/08 14:47:13;;;;;;;8.93;3.30;;;;;;;;;;6153895;23;20407;-80
2021/12/08 14:49:42;;;;;;;7.93;3.25;;;;;;;;;;6153791;23;20150;-80
2021/12/08 14:52:09;;;;;;;9.88;3.28;;;;;;;;;;6154117;23;20013;-80
2021/12/08 14:54:40;;;;;;;10.73;3.22;;;;;;;;;;6129318;23;20637;-79
2021/12/08 14:57:16;;;;;;;13.55;3.80;;;;;;;;;;6153761;23;20391;-80
2021/12/08 15:00:08;;;;;;;7.55;3.33;;;;;;;;;;6153744;23;20402;-81
2021/12/08 15:02:36;;;;;;;9.95;3.20;;;;;;;;;;6173796;23;20451;-81
2021/12/08 15:05:04;;;;;;;10.52;3.40;;;;;;;;;;6180102;23;20068;-80
2021/12/08 15:07:31;;;;;;;10.55;3.45;;;;;;;;;;6153499;23;20025;-81
2021/12/08 15:10:02;;;;;;;8.82;3.40;;;;;;;;;;6180265;23;20032;-82
2021/12/08 15:12:28;;;;;;;8.35;2.97;;;;;;;;;;6180340;23;20103;-80
2021/12/08 15:14:54;;;;;;;7.53;3.28;;;;;;;;;;6153713;23;20009;-80
2021/12/08 15:17:27;;;;;;;12.00;3.40;;;;;;;;;;6180418;23;20040;-80
2021/12/08 15:19:54;;;;;;;7.63;3.20;;;;;;;;;;6179991;23;20017;-81
2021/12/08 15:22:25;;;;;;;7.82;2.95;;;;;;;;;;6154015;23;20753;-81
2021/12/08 15:25:06;;;;;;;9.35;3.53;;;;;;;;;;6129347;23;20091;-80
2021/12/08 15:27:36;;;;;;;9.35;3.38;;;;;;;;;;6128926;23;20076;-81
2021/12/08 15:30:02;;;;;;;12.45;3.72;;;;;;;;;;6153367;23;20048;-81
2021/12/08 15:32:28;;;;;;;8.15;3.28;;;;;;;;;;6128591;23;20071;-81
2021/12/08 15:35:03;;;;;;;10.25;3.50;;;;;;;;;;6129199;23;20091;-81
2021/12/08 15:37:31;;;;;;;6.70;3.35;;;;;;;;;;6128951;23;20024;-81